地図

経路データ

SID SEASON NUMBER BASIN SUBBASIN NAME ISO_TIME NATURE LAT LON WMO_WIND WMO_PRES WMO_AGENCY TRACK_TYPE DIST2LAND LANDFALL IFLAG USA_AGENCY USA_ATCF_ID USA_LAT USA_LON USA_RECORD USA_STATUS USA_WIND USA_PRES USA_SSHS USA_R34_NE USA_R34_SE USA_R34_SW USA_R34_NW USA_R50_NE USA_R50_SE USA_R50_SW USA_R50_NW USA_R64_NE USA_R64_SE USA_R64_SW USA_R64_NW USA_POCI USA_ROCI USA_RMW USA_EYE TOKYO_LAT TOKYO_LON TOKYO_GRADE TOKYO_WIND TOKYO_PRES TOKYO_R50_DIR TOKYO_R50_LONG TOKYO_R50_SHORT TOKYO_R30_DIR TOKYO_R30_LONG TOKYO_R30_SHORT TOKYO_LAND CMA_LAT CMA_LON CMA_CAT CMA_WIND CMA_PRES HKO_LAT HKO_LON HKO_CAT HKO_WIND HKO_PRES NEWDELHI_LAT NEWDELHI_LON NEWDELHI_GRADE NEWDELHI_WIND NEWDELHI_PRES NEWDELHI_CI NEWDELHI_DP NEWDELHI_POCI REUNION_LAT REUNION_LON REUNION_TYPE REUNION_WIND REUNION_PRES REUNION_TNUM REUNION_CI REUNION_RMW REUNION_R34_NE REUNION_R34_SE REUNION_R34_SW REUNION_R34_NW REUNION_R50_NE REUNION_R50_SE REUNION_R50_SW REUNION_R50_NW REUNION_R64_NE REUNION_R64_SE REUNION_R64_SW REUNION_R64_NW BOM_LAT BOM_LON BOM_TYPE BOM_WIND BOM_PRES BOM_TNUM BOM_CI BOM_RMW BOM_R34_NE BOM_R34_SE BOM_R34_SW BOM_R34_NW BOM_R50_NE BOM_R50_SE BOM_R50_SW BOM_R50_NW BOM_R64_NE BOM_R64_SE BOM_R64_SW BOM_R64_NW BOM_ROCI BOM_POCI BOM_EYE BOM_POS_METHOD BOM_PRES_METHOD NADI_LAT NADI_LON NADI_CAT NADI_WIND NADI_PRES WELLINGTON_LAT WELLINGTON_LON WELLINGTON_WIND WELLINGTON_PRES DS824_LAT DS824_LON DS824_STAGE DS824_WIND DS824_PRES TD9636_LAT TD9636_LON TD9636_STAGE TD9636_WIND TD9636_PRES TD9635_LAT TD9635_LON TD9635_WIND TD9635_PRES TD9635_ROCI NEUMANN_LAT NEUMANN_LON NEUMANN_CLASS NEUMANN_WIND NEUMANN_PRES MLC_LAT MLC_LON MLC_CLASS MLC_WIND MLC_PRES USA_GUST BOM_GUST BOM_GUST_PER REUNION_GUST REUNION_GUST_PER USA_SEAHGT USA_SEARAD_NE USA_SEARAD_SE USA_SEARAD_SW USA_SEARAD_NW STORM_SPEED STORM_DIR
1936021S19043 1936 3 SI MM NOT_NAMED 1936-01-21 06:00:00 NR -19.2000 43.1000 reunion main 116 115 _____O________ -1 -19.2000 43.1000 99 9.90000 1 0
1936021S19043 1936 3 SI MM NOT_NAMED 1936-01-21 09:00:00 NR -19.1416 43.0747 main 115 115 _____P________ -1 -19.1416 43.0747 99 1 344
1936021S19043 1936 3 SI MM NOT_NAMED 1936-01-21 12:00:00 NR -19.0923 43.0542 main 115 115 _____P________ -1 -19.0923 43.0542 99 1 335
1936021S19043 1936 3 SI MM NOT_NAMED 1936-01-21 15:00:00 NR -19.0613 43.0433 main 126 126 _____P________ -1 -19.0613 43.0433 99 0 331
1936021S19043 1936 3 SI MM NOT_NAMED 1936-01-21 18:00:00 NR -19.0577 43.0467 main 126 115 _____P________ -1 -19.0577 43.0467 99 0 138
1936021S19043 1936 3 SI MM NOT_NAMED 1936-01-21 21:00:00 NR -19.0907 43.0693 main 115 115 _____P________ -1 -19.0907 43.0693 99 1 148
1936021S19043 1936 3 SI MM NOT_NAMED 1936-01-22 00:00:00 NR -19.1693 43.1157 main 116 105 _____P________ -1 -19.1693 43.1157 99 2 152
1936021S19043 1936 3 SI MM NOT_NAMED 1936-01-22 03:00:00 NR -19.3027 43.1910 main 107 100 _____P________ -1 -19.3027 43.1910 99 4 152
1936021S19043 1936 3 SI MM NOT_NAMED 1936-01-22 06:00:00 NR -19.5000 43.3000 reunion main 104 100 _____O________ -1 -19.5000 43.3000 99 9.90000 5 153
1936021S19043 1936 3 SI MM NOT_NAMED 1936-01-22 09:00:00 NR -19.7665 43.4467 main 104 68 _____P________ -1 -19.7665 43.4467 99 7 152
1936021S19043 1936 3 SI MM NOT_NAMED 1936-01-22 12:00:00 NR -20.0919 43.6303 main 68 33 _____P________ -1 -20.0919 43.6303 99 8 152
1936021S19043 1936 3 SI MM NOT_NAMED 1936-01-22 15:00:00 NR -20.4624 43.8490 main 30 0 _____P________ -1 -20.4624 43.8490 99 9 150
1936021S19043 1936 3 SI MM NOT_NAMED 1936-01-22 18:00:00 NR -20.8639 44.1009 main 0 0 _____P________ -1 -20.8639 44.1009 99 10 149
1936021S19043 1936 3 SI MM NOT_NAMED 1936-01-22 21:00:00 NR -21.2825 44.3840 main 0 0 _____P________ -1 -21.2825 44.3840 99 10 147
1936021S19043 1936 3 SI MM NOT_NAMED 1936-01-23 00:00:00 NR -21.7040 44.6964 main 0 0 _____P________ -1 -21.7040 44.6964 99 10 144
1936021S19043 1936 3 SI MM NOT_NAMED 1936-01-23 03:00:00 NR -22.1145 45.0358 main 0 0 _____P________ -1 -22.1145 45.0358 99 10 141
1936021S19043 1936 3 SI MM NOT_NAMED 1936-01-23 06:00:00 NR -22.5000 45.4000 reunion main 0 0 _____O________ -1 -22.5000 45.4000 99 9.90000 9 135
1936021S19043 1936 3 SI MM NOT_NAMED 1936-01-23 09:00:00 NR -22.7553 45.7383 main 0 0 _____P________ -1 -22.7553 45.7383 99 8 127
1936021S19043 1936 3 SI MM NOT_NAMED 1936-01-23 12:00:00 NR -22.9856 46.1012 main 0 0 _____P________ -1 -22.9856 46.1012 99 8 123
1936021S19043 1936 3 SI MM NOT_NAMED 1936-01-23 15:00:00 NR -23.2045 46.4903 main 0 0 _____P________ -1 -23.2045 46.4903 99 9 121
1936021S19043 1936 3 SI MM NOT_NAMED 1936-01-23 18:00:00 NR -23.4255 46.9074 main 0 0 _____P________ -1 -23.4255 46.9074 99 9 120
1936021S19043 1936 3 SI MM NOT_NAMED 1936-01-23 21:00:00 NR -23.6620 47.3545 main 0 0 _____P________ -1 -23.6620 47.3545 99 10 121
1936021S19043 1936 3 SI MM NOT_NAMED 1936-01-24 00:00:00 NR -23.9277 47.8338 main 30 30 _____P________ -1 -23.9277 47.8338 99 11 122
1936021S19043 1936 3 SI MM NOT_NAMED 1936-01-24 03:00:00 NR -24.2358 48.3480 main 84 84 _____P________ -1 -24.2358 48.3480 99 12 125
1936021S19043 1936 3 SI MM NOT_NAMED 1936-01-24 06:00:00 NR -24.6000 48.9000 reunion main 156 156 _____O________ -1 -24.6000 48.9000 99 9.90000 13 129
1936021S19043 1936 3 SI MM NOT_NAMED 1936-01-24 09:00:00 NR -25.0690 49.4656 main 231 231 _____P________ -1 -25.0690 49.4656 99 15 133
1936021S19043 1936 3 SI MM NOT_NAMED 1936-01-24 12:00:00 NR -25.5921 50.0719 main 307 307 _____P________ -1 -25.5921 50.0719 99 16 134
1936021S19043 1936 3 SI MM NOT_NAMED 1936-01-24 15:00:00 NR -26.1572 50.7178 main 384 384 _____P________ -1 -26.1572 50.7178 99 17 134
1936021S19043 1936 3 SI MM NOT_NAMED 1936-01-24 18:00:00 NR -26.7525 51.4024 main 474 474 _____P________ -1 -26.7525 51.4024 99 17 134
1936021S19043 1936 3 SI MM NOT_NAMED 1936-01-24 21:00:00 NR -27.3662 52.1244 main 565 565 _____P________ -1 -27.3662 52.1244 99 18 133
1936021S19043 1936 3 SI MM NOT_NAMED 1936-01-25 00:00:00 NR -27.9865 52.8825 main 666 666 _____P________ -1 -27.9865 52.8825 99 18 132
1936021S19043 1936 3 SI MM NOT_NAMED 1936-01-25 03:00:00 NR -28.6016 53.6749 main 767 767 _____P________ -1 -28.6016 53.6749 99 19 131
1936021S19043 1936 3 SI MM NOT_NAMED 1936-01-25 06:00:00 NR -29.2000 54.5000 reunion main 868 868 _____O________ -1 -29.2000 54.5000 99 9.90000 20 128
1936021S19043 1936 3 SI MM NOT_NAMED 1936-01-25 09:00:00 NR -29.8060 55.4613 main 938 938 _____P________ -1 -29.8060 55.4613 99 21 125
1936021S19043 1936 3 SI MM NOT_NAMED 1936-01-25 12:00:00 NR -30.4079 56.4790 main 1009 1009 _____P________ -1 -30.4079 56.4790 99 21 124
1936021S19043 1936 3 SI MM NOT_NAMED 1936-01-25 15:00:00 NR -30.9915 57.5236 main 1088 1088 _____P________ -1 -30.9915 57.5236 99 21 122
1936021S19043 1936 3 SI MM NOT_NAMED 1936-01-25 18:00:00 NR -31.5435 58.5634 main 1166 1166 _____P________ -1 -31.5435 58.5634 99 20 121
1936021S19043 1936 3 SI MM NOT_NAMED 1936-01-25 21:00:00 NR -32.0513 59.5657 main 1258 1258 _____P________ -1 -32.0513 59.5657 99 19 120
1936021S19043 1936 3 SI MM NOT_NAMED 1936-01-26 00:00:00 NR -32.5035 60.4961 main 1330 1330 _____P________ -1 -32.5035 60.4961 99 17 120
1936021S19043 1936 3 SI MM NOT_NAMED 1936-01-26 03:00:00 NR -32.8896 61.3194 main 1401 1401 _____P________ -1 -32.8896 61.3194 99 14 119
1936021S19043 1936 3 SI MM NOT_NAMED 1936-01-26 06:00:00 NR -33.2000 62.0000 reunion main 1460 1460 _____O________ -1 -33.2000 62.0000 99 9.90000 11 118
1936021S19043 1936 3 SI MM NOT_NAMED 1936-01-26 09:00:00 NR -33.4289 62.5112 main 1501 1501 _____P________ -1 -33.4289 62.5112 99 8 118
1936021S19043 1936 3 SI MM NOT_NAMED 1936-01-26 12:00:00 NR -33.5849 62.8642 main 1539 1539 _____P________ -1 -33.5849 62.8642 99 5 118
1936021S19043 1936 3 SI MM NOT_NAMED 1936-01-26 15:00:00 NR -33.6797 63.0804 main 1558 1558 _____P________ -1 -33.6797 63.0804 99 3 118
1936021S19043 1936 3 SI MM NOT_NAMED 1936-01-26 18:00:00 NR -33.7241 63.1821 main 1562 1562 _____P________ -1 -33.7241 63.1821 99 1 116
1936021S19043 1936 3 SI MM NOT_NAMED 1936-01-26 21:00:00 NR -33.7282 63.1920 main 1562 1558 _____P________ -1 -33.7282 63.1920 99 0 303
1936021S19043 1936 3 SI MM NOT_NAMED 1936-01-27 00:00:00 NR -33.7023 63.1329 main 1558 1553 _____P________ -1 -33.7023 63.1329 99 2 298
1936021S19043 1936 3 SI MM NOT_NAMED 1936-01-27 03:00:00 NR -33.6563 63.0279 main 1553 1539 _____P________ -1 -33.6563 63.0279 99 2 298
1936021S19043 1936 3 SI MM NOT_NAMED 1936-01-27 06:00:00 NR -33.6000 62.9000 reunion main 1539 _____O________ -1 -33.6000 62.9000 99 9.90000 2 298

IBTrACS Databaseについて

本データベースは、米国NOAAが公開する1842年以降の世界の熱帯低気圧のベストトラックデータアーカイブInternational Best Track Archive for Climate Stewardship (IBTrACS)を、ウェブで閲覧しやすい形式に変換したものです。

最終更新日:2021-11-26